createdAt,value
2022-10-18T00:00:54.694Z,7.80
2022-10-18T00:03:23.003Z,9.63
2022-10-18T00:05:51.437Z,7.97
2022-10-18T00:08:20.997Z,8.17
2022-10-18T00:10:49.435Z,7.97
2022-10-18T00:13:19.015Z,15.60
2022-10-18T00:15:51.788Z,7.53
2022-10-18T00:18:20.516Z,10.57
2022-10-18T00:20:58.128Z,5.70
2022-10-18T00:23:26.396Z,8.03
2022-10-18T00:26:01.189Z,6.17
2022-10-18T00:28:30.783Z,6.27
2022-10-18T00:30:59.028Z,8.93
2022-10-18T00:33:26.827Z,8.87
2022-10-18T00:35:54.667Z,6.17
2022-10-18T00:38:22.455Z,5.27
2022-10-18T00:40:50.276Z,5.50
2022-10-18T00:43:19.654Z,5.57
2022-10-18T00:45:48.864Z,8.37
2022-10-18T00:48:19.650Z,11.63
2022-10-18T00:50:48.926Z,8.47
2022-10-18T00:53:18.830Z,10.80
2022-10-18T00:55:47.352Z,7.90
2022-10-18T00:58:17.954Z,9.30
2022-10-18T01:00:46.001Z,7.50
2022-10-18T01:03:15.259Z,11.53
2022-10-18T01:05:45.927Z,8.47
2022-10-18T01:08:42.574Z,6.60
2022-10-18T01:11:34.350Z,7.73
2022-10-18T01:14:13.993Z,10.10
2022-10-18T01:16:50.022Z,10.13
2022-10-18T01:19:35.879Z,9.93
2022-10-18T01:22:08.779Z,11.80
2022-10-18T01:27:45.457Z,17.37
2022-10-18T01:30:40.511Z,13.20
2022-10-18T01:33:19.943Z,10.87
2022-10-18T01:35:53.347Z,10.83
2022-10-18T01:38:23.436Z,10.70
2022-10-18T01:40:52.668Z,8.20
2022-10-18T01:43:22.488Z,8.97
2022-10-18T01:45:54.387Z,7.33
2022-10-18T01:48:23.934Z,11.27
2022-10-18T01:50:53.270Z,9.30
2022-10-18T01:53:30.791Z,9.93
2022-10-18T01:56:20.816Z,7.63
2022-10-18T01:58:57.953Z,7.50
2022-10-18T02:01:42.167Z,9.80
2022-10-18T02:04:21.776Z,9.17
2022-10-18T02:06:54.861Z,8.20
2022-10-18T02:09:32.572Z,8.00
2022-10-18T02:12:01.837Z,7.23
2022-10-18T02:14:31.195Z,7.87
2022-10-18T02:17:04.105Z,10.60
2022-10-18T02:19:35.732Z,5.93
2022-10-18T02:22:04.614Z,11.33
2022-10-18T02:24:38.667Z,8.73
2022-10-18T02:27:06.935Z,14.13
2022-10-18T02:29:35.629Z,9.40
2022-10-18T02:32:09.095Z,9.50
2022-10-18T02:34:40.257Z,9.37
2022-10-18T02:37:09.501Z,9.50
2022-10-18T02:39:40.361Z,8.43
2022-10-18T02:42:10.759Z,17.63
2022-10-18T02:44:39.978Z,11.93
2022-10-18T02:47:12.962Z,10.97
2022-10-18T02:49:41.127Z,9.70
2022-10-18T02:52:09.010Z,11.23
2022-10-18T02:54:36.993Z,9.67
2022-10-18T02:57:05.063Z,8.37
2022-10-18T02:59:32.872Z,11.97
2022-10-18T03:02:00.667Z,7.80
2022-10-18T03:04:29.883Z,10.47
2022-10-18T03:06:57.748Z,23.30
2022-10-18T03:09:25.934Z,12.73
2022-10-18T03:11:53.735Z,11.23
2022-10-18T03:14:21.569Z,15.90
2022-10-18T03:16:49.392Z,18.47
2022-10-18T03:19:17.332Z,16.07
2022-10-18T03:21:46.495Z,18.20
2022-10-18T03:24:14.394Z,15.20
2022-10-18T03:26:42.264Z,15.83
2022-10-18T03:29:10.902Z,10.93
2022-10-18T03:31:38.897Z,14.00
2022-10-18T03:34:06.732Z,8.00
2022-10-18T03:36:35.016Z,11.30
2022-10-18T03:39:04.162Z,16.90
2022-10-18T03:41:31.995Z,14.30
2022-10-18T03:43:59.799Z,11.83
2022-10-18T03:46:27.751Z,15.17
2022-10-18T03:48:55.597Z,11.13
2022-10-18T03:51:23.414Z,16.43
2022-10-18T03:53:51.203Z,14.13
2022-10-18T03:56:20.343Z,15.37
2022-10-18T03:58:48.157Z,11.50
2022-10-18T04:01:16.057Z,29.80
2022-10-18T04:03:43.892Z,15.77
2022-10-18T04:06:11.701Z,13.93
2022-10-18T04:08:39.553Z,11.57
2022-10-18T04:11:09.807Z,12.27
2022-10-18T04:13:39.161Z,22.57
2022-10-18T04:16:07.331Z,11.03
2022-10-18T04:18:35.140Z,16.60
2022-10-18T04:21:02.962Z,13.57
2022-10-18T04:23:32.741Z,12.10
2022-10-18T04:26:02.945Z,12.03
2022-10-18T04:28:30.803Z,13.97
2022-10-18T04:31:00.005Z,14.37
2022-10-18T04:33:27.908Z,11.93
2022-10-18T04:35:55.689Z,10.87
2022-10-18T04:38:23.545Z,10.23
2022-10-18T04:40:51.373Z,14.70
2022-10-18T04:43:19.315Z,13.53
2022-10-18T04:45:48.048Z,12.13
2022-10-18T04:48:17.318Z,15.87
2022-10-18T04:50:45.353Z,13.63
2022-10-18T04:53:15.297Z,13.33
2022-10-18T04:55:45.070Z,15.80
2022-10-18T04:58:13.204Z,19.10
2022-10-18T05:00:41.011Z,9.43
2022-10-18T05:03:08.975Z,16.50
2022-10-18T05:06:00.288Z,16.77
2022-10-18T05:11:13.127Z,17.23
2022-10-18T05:13:41.031Z,15.10
2022-10-18T05:16:09.264Z,14.87
2022-10-18T05:18:37.083Z,25.93
2022-10-18T05:21:06.625Z,11.80
2022-10-18T05:23:34.424Z,12.83
2022-10-18T05:26:04.114Z,20.17
2022-10-18T05:28:40.852Z,29.43
2022-10-18T05:31:11.224Z,30.63
2022-10-18T05:33:39.286Z,13.20
2022-10-18T05:36:09.123Z,11.63
2022-10-18T05:38:40.059Z,17.80
2022-10-18T05:41:08.000Z,14.43
2022-10-18T05:43:35.879Z,19.20
2022-10-18T05:46:04.129Z,21.23
2022-10-18T05:48:31.988Z,17.27
2022-10-18T05:51:00.166Z,16.67
2022-10-18T05:53:36.684Z,19.37
2022-10-18T05:56:05.665Z,24.33
2022-10-18T05:58:33.550Z,17.17
2022-10-18T06:01:01.690Z,11.77
2022-10-18T06:03:30.597Z,16.50
2022-10-18T06:06:01.272Z,16.87
2022-10-18T06:08:30.463Z,22.90
2022-10-18T06:10:58.511Z,16.13
2022-10-18T06:13:26.424Z,13.90
2022-10-18T06:15:57.289Z,19.77
2022-10-18T06:18:25.292Z,21.03
2022-10-18T06:20:58.233Z,16.53
2022-10-18T06:23:26.163Z,25.23
2022-10-18T06:25:58.800Z,20.50
2022-10-18T06:28:26.911Z,47.83
2022-10-18T06:30:54.868Z,23.43
2022-10-18T06:33:22.841Z,17.07
2022-10-18T06:35:58.410Z,18.97
2022-10-18T06:38:26.625Z,14.70
2022-10-18T06:40:56.294Z,21.40
2022-10-18T06:43:24.900Z,27.93
2022-10-18T06:45:53.737Z,26.37
2022-10-18T06:48:22.554Z,36.10
2022-10-18T06:50:55.068Z,64.70
2022-10-18T06:53:22.878Z,21.30
2022-10-18T06:55:50.702Z,54.13
2022-10-18T06:58:20.094Z,50.87
2022-10-18T07:00:47.926Z,132.33
2022-10-18T07:03:15.733Z,219.73
2022-10-18T07:05:43.593Z,130.57
2022-10-18T07:08:11.424Z,66.00
2022-10-18T07:10:39.275Z,37.73
2022-10-18T07:13:30.777Z,36.80
2022-10-18T07:16:03.798Z,26.87
2022-10-18T07:18:31.614Z,50.63
2022-10-18T07:21:02.575Z,92.80
2022-10-18T07:23:30.436Z,95.03
2022-10-18T07:25:58.371Z,47.37
2022-10-18T07:28:26.269Z,71.40
2022-10-18T07:30:54.277Z,103.07
2022-10-18T07:33:24.603Z,31.27
2022-10-18T07:35:52.685Z,52.90
2022-10-18T07:38:20.507Z,50.03
2022-10-18T07:40:48.338Z,45.07
2022-10-18T07:43:16.130Z,73.17
2022-10-18T07:45:53.063Z,27.67
2022-10-18T07:48:20.879Z,17.87
2022-10-18T07:50:50.138Z,22.97
2022-10-18T07:53:18.044Z,15.77
2022-10-18T07:55:45.933Z,27.17
2022-10-18T07:58:13.749Z,28.20
2022-10-18T08:00:41.631Z,24.17
2022-10-18T08:03:09.521Z,20.90
2022-10-18T08:05:37.334Z,20.57
2022-10-18T08:08:08.103Z,33.77
2022-10-18T08:10:36.643Z,28.43
2022-10-18T08:13:04.467Z,35.30
2022-10-18T08:15:32.271Z,59.47
2022-10-18T08:18:00.094Z,58.73
2022-10-18T08:20:31.636Z,55.60
2022-10-18T08:23:00.622Z,55.30
2022-10-18T08:25:30.297Z,51.10
2022-10-18T08:27:58.684Z,37.13
2022-10-18T08:30:26.570Z,45.87
2022-10-18T08:32:54.401Z,44.83
2022-10-18T08:35:22.187Z,46.70
2022-10-18T08:37:50.110Z,34.67
2022-10-18T08:40:18.335Z,39.43
2022-10-18T08:42:58.907Z,40.53
2022-10-18T08:45:41.909Z,35.50
2022-10-18T08:48:21.681Z,43.00
2022-10-18T08:50:50.668Z,39.67
2022-10-18T08:53:24.212Z,34.33
2022-10-18T08:55:58.450Z,34.43
2022-10-18T08:58:31.660Z,34.90
2022-10-18T09:01:09.683Z,31.40
2022-10-18T09:03:57.654Z,29.17
2022-10-18T09:06:31.163Z,29.43
2022-10-18T09:09:12.178Z,26.97
2022-10-18T09:11:50.794Z,27.07
2022-10-18T09:14:45.396Z,32.30
2022-10-18T09:17:20.932Z,29.33
2022-10-18T09:20:03.997Z,25.43
2022-10-18T09:22:44.488Z,26.47
2022-10-18T09:25:19.801Z,24.07
2022-10-18T09:27:53.590Z,23.23
2022-10-18T09:30:34.281Z,23.27
2022-10-18T09:33:14.128Z,24.10
2022-10-18T09:35:48.751Z,20.83
2022-10-18T09:38:20.652Z,25.00
2022-10-18T09:40:54.221Z,27.00
2022-10-18T09:43:25.733Z,23.33
2022-10-18T09:45:56.427Z,26.00
2022-10-18T09:48:30.004Z,18.60
2022-10-18T09:51:01.809Z,21.10
2022-10-18T09:53:37.818Z,24.00
2022-10-18T09:56:09.679Z,18.07
2022-10-18T09:58:46.255Z,21.10
2022-10-18T10:01:19.279Z,21.73
2022-10-18T10:03:47.116Z,18.73
2022-10-18T10:06:24.530Z,20.80
2022-10-18T10:08:58.859Z,19.03
2022-10-18T10:11:32.286Z,25.07
2022-10-18T10:14:09.683Z,21.87
2022-10-18T10:16:49.328Z,20.70
2022-10-18T10:19:19.575Z,21.47
2022-10-18T10:21:49.307Z,19.00
2022-10-18T10:24:30.394Z,17.47
2022-10-18T10:27:05.016Z,18.33
2022-10-18T10:29:58.830Z,22.20
2022-10-18T10:32:33.436Z,21.90
2022-10-18T10:35:01.290Z,21.73
2022-10-18T10:37:35.737Z,17.77
2022-10-18T10:40:24.089Z,15.43
2022-10-18T10:43:18.155Z,15.37
2022-10-18T10:46:03.240Z,19.77
2022-10-18T10:48:40.155Z,18.47
2022-10-18T10:51:10.126Z,23.53
2022-10-18T10:53:43.457Z,17.77
2022-10-18T10:56:36.970Z,19.67
2022-10-18T10:59:13.972Z,18.20
2022-10-18T11:01:43.543Z,15.60
2022-10-18T11:04:28.490Z,15.73
2022-10-18T11:07:07.847Z,15.73
2022-10-18T11:09:46.497Z,16.07
2022-10-18T11:12:33.258Z,12.83
2022-10-18T11:15:12.975Z,11.97
2022-10-18T11:17:44.941Z,10.13
2022-10-18T11:20:28.363Z,13.30
2022-10-18T11:23:04.270Z,12.70
2022-10-18T11:26:09.210Z,13.33
2022-10-18T11:28:51.532Z,15.23
2022-10-18T11:31:26.133Z,14.67
2022-10-18T11:34:10.062Z,16.53
2022-10-18T11:37:02.288Z,12.23
2022-10-18T11:39:48.074Z,14.17
2022-10-18T11:42:24.168Z,13.17
2022-10-18T11:44:59.981Z,11.20
2022-10-18T11:47:39.048Z,9.57
2022-10-18T11:50:19.296Z,12.73
2022-10-18T11:52:57.334Z,12.83
2022-10-18T11:55:34.889Z,10.53
2022-10-18T11:58:14.255Z,9.10
2022-10-18T12:00:48.993Z,8.23
2022-10-18T12:03:34.497Z,12.43
2022-10-18T12:06:07.608Z,11.43
2022-10-18T12:08:41.052Z,14.90
2022-10-18T12:11:15.201Z,13.87
2022-10-18T12:13:49.067Z,7.70
2022-10-18T12:16:25.625Z,14.23
2022-10-18T12:19:14.289Z,14.57
2022-10-18T12:21:43.919Z,9.20
2022-10-18T12:24:18.666Z,15.70
2022-10-18T12:26:49.045Z,10.80
2022-10-18T12:29:26.368Z,10.87
2022-10-18T12:31:58.127Z,12.33
2022-10-18T12:34:32.724Z,10.27
2022-10-18T12:37:21.890Z,10.50
2022-10-18T12:40:13.127Z,19.43
2022-10-18T12:42:45.108Z,7.77
2022-10-18T12:45:28.090Z,10.30
2022-10-18T12:47:59.760Z,9.33
2022-10-18T12:50:31.837Z,15.13
2022-10-18T12:53:16.575Z,12.50
2022-10-18T12:55:47.331Z,11.33
2022-10-18T12:58:30.493Z,9.00
2022-10-18T13:01:04.124Z,11.67
2022-10-18T13:04:02.546Z,10.20
2022-10-18T13:07:03.857Z,12.20
2022-10-18T13:09:34.997Z,13.73
2022-10-18T13:12:45.737Z,9.17
2022-10-18T13:15:36.031Z,14.07
2022-10-18T13:18:15.524Z,10.37
2022-10-18T13:20:51.241Z,8.20
2022-10-18T13:23:43.715Z,11.97
2022-10-18T13:26:22.755Z,11.60
2022-10-18T13:28:58.441Z,8.60
2022-10-18T13:31:36.244Z,7.23
2022-10-18T13:34:23.912Z,8.47
2022-10-18T13:36:58.279Z,9.23
2022-10-18T13:39:26.893Z,7.73
2022-10-18T13:42:19.684Z,11.50
2022-10-18T13:44:48.841Z,9.33
2022-10-18T13:47:32.673Z,8.00
2022-10-18T13:50:36.003Z,9.50
2022-10-18T13:53:37.660Z,10.27
2022-10-18T13:56:24.550Z,11.63
2022-10-18T13:59:14.513Z,9.83
2022-10-18T14:01:55.063Z,6.40
2022-10-18T14:04:47.820Z,6.90
2022-10-18T14:07:20.007Z,6.67
2022-10-18T14:09:54.876Z,8.50
2022-10-18T14:12:30.205Z,9.97
2022-10-18T14:15:11.088Z,7.00
2022-10-18T14:17:45.948Z,5.87
2022-10-18T14:20:27.213Z,6.60
2022-10-18T14:23:05.762Z,5.97
2022-10-18T14:25:35.725Z,6.40
2022-10-18T14:28:12.385Z,5.43
2022-10-18T14:30:53.604Z,5.00
2022-10-18T14:33:35.451Z,5.93
2022-10-18T14:36:11.543Z,7.53
2022-10-18T14:38:52.411Z,10.90
2022-10-18T14:41:23.457Z,8.13
2022-10-18T14:43:51.787Z,7.13
2022-10-18T14:46:25.907Z,11.73
2022-10-18T14:48:57.096Z,6.87
2022-10-18T14:51:26.167Z,6.30
2022-10-18T14:53:54.839Z,5.10
2022-10-18T14:56:26.470Z,7.07
2022-10-18T14:58:55.866Z,6.57
2022-10-18T15:01:27.713Z,8.93
2022-10-18T15:03:59.537Z,6.73
2022-10-18T15:06:27.687Z,8.80
2022-10-18T15:08:58.067Z,7.67
2022-10-18T15:11:27.141Z,8.90
2022-10-18T15:13:57.670Z,6.97
2022-10-18T15:16:28.626Z,5.63
2022-10-18T15:19:06.963Z,8.33
2022-10-18T15:21:36.047Z,5.50
2022-10-18T15:24:21.407Z,4.07
2022-10-18T15:26:50.591Z,5.03
2022-10-18T15:29:20.562Z,5.60
2022-10-18T15:31:50.301Z,8.60
2022-10-18T15:34:23.461Z,5.90
2022-10-18T15:36:53.137Z,8.17
2022-10-18T15:39:22.570Z,7.53
2022-10-18T15:41:51.449Z,7.53
2022-10-18T15:44:25.903Z,7.63
2022-10-18T15:46:56.273Z,8.00
2022-10-18T15:49:55.195Z,5.63
2022-10-18T15:52:39.227Z,4.33
2022-10-18T15:55:56.543Z,5.50
2022-10-18T15:58:26.907Z,6.73
2022-10-18T16:00:57.284Z,7.20
2022-10-18T16:03:25.343Z,6.87
2022-10-18T16:05:59.839Z,7.10
2022-10-18T16:08:30.337Z,6.20
2022-10-18T16:10:58.675Z,6.13
2022-10-18T16:13:27.157Z,7.47
2022-10-18T16:15:56.519Z,6.53
2022-10-18T16:18:25.791Z,9.67
2022-10-18T16:20:55.740Z,12.60
2022-10-18T16:23:25.531Z,5.67
2022-10-18T16:25:53.912Z,6.13
2022-10-18T16:28:24.756Z,7.63
2022-10-18T16:30:56.686Z,6.53
2022-10-18T16:33:25.083Z,7.40
2022-10-18T16:35:53.433Z,9.90
2022-10-18T16:38:31.083Z,6.93
2022-10-18T16:41:02.788Z,10.93
2022-10-18T16:43:31.026Z,11.60
2022-10-18T16:45:58.899Z,7.03
2022-10-18T16:48:26.757Z,4.13
2022-10-18T16:50:56.174Z,10.43
2022-10-18T16:53:26.197Z,10.10
2022-10-18T16:55:55.801Z,6.50
2022-10-18T17:00:57.279Z,11.27
2022-10-18T17:03:26.027Z,9.50
2022-10-18T17:05:54.378Z,12.63
2022-10-18T17:08:25.280Z,11.67
2022-10-18T17:10:56.215Z,8.63
2022-10-18T17:13:25.326Z,5.73
2022-10-18T17:15:54.080Z,11.33
2022-10-18T17:18:26.153Z,9.87
2022-10-18T17:20:54.017Z,11.53
2022-10-18T17:23:21.820Z,7.53
2022-10-18T17:26:05.623Z,15.37
2022-10-18T17:28:38.316Z,8.03
2022-10-18T17:31:07.410Z,8.50
2022-10-18T17:33:35.274Z,11.70
2022-10-18T17:36:03.284Z,21.43
2022-10-18T17:38:31.107Z,9.37
2022-10-18T17:41:00.310Z,9.40
2022-10-18T17:43:28.758Z,8.93
2022-10-18T17:45:57.456Z,15.23
2022-10-18T17:48:25.879Z,8.47
2022-10-18T17:50:53.727Z,8.00
2022-10-18T17:53:22.964Z,8.93
2022-10-18T17:55:50.867Z,9.90
2022-10-18T17:58:20.051Z,10.30
2022-10-18T18:00:47.844Z,14.67
2022-10-18T18:03:15.757Z,10.87
2022-10-18T18:05:43.697Z,10.50
2022-10-18T18:08:11.657Z,6.37
2022-10-18T18:10:39.569Z,10.13
2022-10-18T18:13:07.408Z,14.67
2022-10-18T18:15:36.597Z,13.70
2022-10-18T18:18:04.526Z,11.13
2022-10-18T18:20:32.335Z,7.67
2022-10-18T18:23:00.167Z,8.67
2022-10-18T18:25:28.018Z,15.73
2022-10-18T18:27:55.808Z,8.47
2022-10-18T18:30:23.640Z,7.90
2022-10-18T18:32:52.739Z,7.87
2022-10-18T18:35:20.611Z,10.80
2022-10-18T18:37:51.258Z,8.80
2022-10-18T18:40:19.275Z,7.77
2022-10-18T18:43:01.417Z,8.50
2022-10-18T18:45:34.947Z,10.83
2022-10-18T18:48:04.220Z,16.33
2022-10-18T18:50:32.951Z,7.33
2022-10-18T18:53:00.772Z,8.87
2022-10-18T18:55:28.611Z,7.97
2022-10-18T18:57:56.421Z,13.63
2022-10-18T19:00:24.331Z,9.60
2022-10-18T19:02:52.166Z,9.67
2022-10-18T19:05:21.294Z,11.63
2022-10-18T19:07:49.107Z,7.27
2022-10-18T19:10:16.957Z,8.67
2022-10-18T19:12:44.863Z,8.43
2022-10-18T19:15:13.321Z,8.70
2022-10-18T19:17:41.111Z,6.80
2022-10-18T19:20:12.143Z,5.10
2022-10-18T19:22:41.355Z,5.03
2022-10-18T19:25:09.806Z,8.90
2022-10-18T19:27:38.270Z,14.47
2022-10-18T19:30:08.670Z,8.00
2022-10-18T19:32:36.538Z,8.70
2022-10-18T19:35:04.759Z,10.83
2022-10-18T19:37:33.152Z,8.10
2022-10-18T19:40:02.523Z,6.40
2022-10-18T19:42:31.425Z,10.30
2022-10-18T19:44:59.684Z,12.10
2022-10-18T19:47:27.515Z,11.37
2022-10-18T19:49:55.349Z,7.83
2022-10-18T19:54:28.531Z,10.07
2022-10-18T19:56:56.480Z,9.80
2022-10-18T19:59:25.101Z,7.13
2022-10-18T20:01:52.948Z,12.03
2022-10-18T20:04:20.851Z,8.33
2022-10-18T20:06:48.658Z,10.47
2022-10-18T20:09:19.707Z,10.93
2022-10-18T20:11:49.951Z,8.77
2022-10-18T20:14:17.859Z,9.17
2022-10-18T20:16:45.726Z,13.47
2022-10-18T20:19:13.580Z,7.43
2022-10-18T20:21:42.013Z,10.90
2022-10-18T20:24:11.564Z,12.97
2022-10-18T20:26:40.021Z,17.00
2022-10-18T20:29:09.327Z,8.20
2022-10-18T20:31:38.915Z,8.07
2022-10-18T20:34:11.366Z,12.97
2022-10-18T20:36:39.348Z,9.90
2022-10-18T20:39:07.738Z,8.63
2022-10-18T20:41:38.539Z,9.70
2022-10-18T20:44:12.975Z,7.57
2022-10-18T20:46:41.658Z,13.03
2022-10-18T20:49:12.278Z,9.53
2022-10-18T20:51:40.195Z,9.43
2022-10-18T20:54:08.909Z,9.80
2022-10-18T20:56:38.003Z,11.07
2022-10-18T20:59:09.541Z,9.93
2022-10-18T21:01:40.113Z,12.47
2022-10-18T21:04:09.993Z,11.33
2022-10-18T21:06:41.161Z,9.30
2022-10-18T21:09:11.308Z,10.27
2022-10-18T21:11:41.040Z,12.03
2022-10-18T21:14:11.667Z,15.40
2022-10-18T21:16:41.051Z,8.70
2022-10-18T21:19:11.410Z,12.37
2022-10-18T21:21:39.227Z,12.33
2022-10-18T21:24:08.002Z,11.07
2022-10-18T21:26:36.442Z,7.80
2022-10-18T21:29:05.517Z,11.70
2022-10-18T21:31:35.562Z,12.40
2022-10-18T21:34:06.999Z,12.63
2022-10-18T21:36:36.747Z,6.90
2022-10-18T21:39:06.490Z,10.07
2022-10-18T21:41:35.088Z,8.80
2022-10-18T21:44:05.649Z,9.67
2022-10-18T21:46:36.189Z,10.87
2022-10-18T21:49:06.019Z,17.37
2022-10-18T21:51:33.962Z,12.00
2022-10-18T21:54:01.888Z,10.13
2022-10-18T21:56:31.561Z,12.87
2022-10-18T21:58:59.655Z,14.40
2022-10-18T22:01:29.030Z,12.93
2022-10-18T22:03:57.949Z,9.37
2022-10-18T22:06:29.402Z,9.93
2022-10-18T22:08:59.247Z,15.30
2022-10-18T22:11:29.319Z,12.13
2022-10-18T22:13:57.653Z,12.93
2022-10-18T22:16:26.062Z,11.27
2022-10-18T22:18:57.803Z,14.30
2022-10-18T22:21:26.952Z,11.50
2022-10-18T22:23:56.872Z,11.53
2022-10-18T22:26:26.780Z,14.00
2022-10-18T22:28:56.246Z,10.93
2022-10-18T22:31:26.406Z,15.37
2022-10-18T22:33:55.817Z,9.43
2022-10-18T22:36:24.286Z,12.80
2022-10-18T22:38:53.883Z,12.47
2022-10-18T22:41:21.752Z,9.23
2022-10-18T22:43:51.351Z,13.23
2022-10-18T22:46:19.689Z,13.33
2022-10-18T22:48:48.119Z,14.70
2022-10-18T22:51:16.151Z,10.90
2022-10-18T22:53:44.490Z,13.10
2022-10-18T22:56:16.506Z,12.40
2022-10-18T22:58:44.503Z,12.93
2022-10-18T23:01:14.752Z,11.80
2022-10-18T23:03:42.877Z,15.43
2022-10-18T23:06:20.130Z,15.23
2022-10-18T23:08:48.259Z,15.30
2022-10-18T23:11:18.039Z,11.87
2022-10-18T23:13:45.975Z,11.73
2022-10-18T23:16:14.414Z,14.27
2022-10-18T23:18:42.258Z,12.83
2022-10-18T23:21:12.583Z,11.97
2022-10-18T23:23:42.492Z,16.07
2022-10-18T23:26:13.125Z,11.07
2022-10-18T23:28:44.698Z,15.47
2022-10-18T23:31:14.793Z,13.07
2022-10-18T23:33:43.003Z,8.27
2022-10-18T23:36:11.344Z,12.60
2022-10-18T23:38:40.245Z,15.60
2022-10-18T23:41:09.944Z,7.83
2022-10-18T23:43:37.965Z,8.87
2022-10-18T23:46:07.487Z,19.40
2022-10-18T23:48:35.308Z,20.23
2022-10-18T23:51:04.020Z,13.07
2022-10-18T23:53:32.036Z,16.17
2022-10-18T23:56:01.675Z,13.33
2022-10-18T23:58:31.172Z,16.60
